createdAt,value
2018-09-26T00:01:27.329Z,7.70
2018-09-26T00:05:00.695Z,7.60
2018-09-26T00:08:33.907Z,7.60
2018-09-26T00:12:07.409Z,7.60
2018-09-26T00:15:40.628Z,7.60
2018-09-26T00:19:13.859Z,7.60
2018-09-26T00:22:47.067Z,7.60
2018-09-26T00:26:20.289Z,7.60
2018-09-26T00:29:53.556Z,7.60
2018-09-26T00:33:26.763Z,7.60
2018-09-26T00:36:59.976Z,7.50
2018-09-26T00:40:33.191Z,7.50
2018-09-26T00:44:06.399Z,7.50
2018-09-26T00:47:39.640Z,7.50
2018-09-26T00:51:12.867Z,7.50
2018-09-26T00:54:46.095Z,7.40
2018-09-26T00:58:19.296Z,7.40
2018-09-26T01:01:52.507Z,7.40
2018-09-26T01:05:25.719Z,7.40
2018-09-26T01:08:58.945Z,7.30
2018-09-26T01:12:32.156Z,7.30
2018-09-26T01:16:05.371Z,7.30
2018-09-26T01:19:38.572Z,7.20
2018-09-26T01:23:12.447Z,7.20
2018-09-26T01:26:45.642Z,7.20
2018-09-26T01:30:18.868Z,7.20
2018-09-26T01:33:52.087Z,7.20
2018-09-26T01:37:25.335Z,7.20
2018-09-26T01:40:58.548Z,7.10
2018-09-26T01:44:31.788Z,7.10
2018-09-26T01:48:05.030Z,7.10
2018-09-26T01:51:38.295Z,7.20
2018-09-26T01:55:11.597Z,7.20
2018-09-26T01:58:44.807Z,7.20
2018-09-26T02:02:18.067Z,7.10
2018-09-26T02:05:51.301Z,7.10
2018-09-26T02:09:24.517Z,7.00
2018-09-26T02:12:57.741Z,6.90
2018-09-26T02:16:30.955Z,6.80
2018-09-26T02:20:04.190Z,6.70
2018-09-26T02:23:37.420Z,6.60
2018-09-26T02:27:10.650Z,6.60
2018-09-26T02:30:43.880Z,6.60
2018-09-26T02:34:17.121Z,6.60
2018-09-26T02:37:50.353Z,6.50
2018-09-26T02:41:23.669Z,6.40
2018-09-26T02:44:56.884Z,6.40
2018-09-26T02:48:35.392Z,6.40
2018-09-26T02:52:08.612Z,6.40
2018-09-26T02:55:41.836Z,6.40
2018-09-26T02:59:15.060Z,6.40
2018-09-26T03:02:48.294Z,6.40
2018-09-26T03:06:21.540Z,6.40
2018-09-26T03:09:54.788Z,6.40
2018-09-26T03:13:28.012Z,6.40
2018-09-26T03:17:01.229Z,6.40
2018-09-26T03:20:34.455Z,6.40
2018-09-26T03:24:07.672Z,6.40
2018-09-26T03:27:40.900Z,6.40
2018-09-26T03:31:14.503Z,6.40
2018-09-26T03:34:47.700Z,6.40
2018-09-26T03:38:20.940Z,6.40
2018-09-26T03:41:54.171Z,6.30
2018-09-26T03:45:27.399Z,6.40
2018-09-26T03:49:00.627Z,6.40
2018-09-26T03:52:33.854Z,6.30
2018-09-26T03:56:07.070Z,6.30
2018-09-26T03:59:40.300Z,6.30
2018-09-26T04:03:13.514Z,6.20
2018-09-26T04:06:46.730Z,6.20
2018-09-26T04:10:19.972Z,6.10
2018-09-26T04:13:53.184Z,6.20
2018-09-26T04:17:26.445Z,6.20
2018-09-26T04:20:59.672Z,6.20
2018-09-26T04:24:32.924Z,6.10
2018-09-26T04:28:06.256Z,6.10
2018-09-26T04:31:39.539Z,6.20
2018-09-26T04:35:12.777Z,6.20
2018-09-26T04:38:46.058Z,6.10
2018-09-26T04:42:19.239Z,6.00
2018-09-26T04:45:52.459Z,5.80
2018-09-26T04:49:25.793Z,5.70
2018-09-26T04:52:59.044Z,5.60
2018-09-26T04:56:32.276Z,5.60
2018-09-26T05:00:05.549Z,5.70
2018-09-26T05:03:38.773Z,5.70
2018-09-26T05:07:11.992Z,5.80
2018-09-26T05:10:45.203Z,5.80
2018-09-26T05:14:18.439Z,5.80
2018-09-26T05:17:52.182Z,5.80
2018-09-26T05:21:25.511Z,5.80
2018-09-26T05:24:58.748Z,5.90
2018-09-26T05:28:32.055Z,5.90
2018-09-26T05:32:05.277Z,5.90
2018-09-26T05:35:38.492Z,6.00
2018-09-26T05:39:12.471Z,6.00
2018-09-26T05:42:45.699Z,6.00
2018-09-26T05:46:18.920Z,6.10
2018-09-26T05:49:52.151Z,6.10
2018-09-26T05:53:25.426Z,6.10
2018-09-26T05:56:58.592Z,6.20
2018-09-26T06:00:31.808Z,6.20
2018-09-26T06:04:05.182Z,6.20
2018-09-26T06:07:38.447Z,6.10
2018-09-26T06:11:11.782Z,6.00
2018-09-26T06:14:45.021Z,6.10
2018-09-26T06:18:18.237Z,6.10
2018-09-26T06:21:51.495Z,6.20
2018-09-26T06:25:24.708Z,6.30
2018-09-26T06:28:57.942Z,6.40
2018-09-26T06:32:31.148Z,6.50
2018-09-26T06:36:04.383Z,6.50
2018-09-26T06:39:37.603Z,6.60
2018-09-26T06:43:10.851Z,6.60
2018-09-26T06:46:44.064Z,6.60
2018-09-26T06:50:17.324Z,6.60
2018-09-26T06:53:50.554Z,6.70
2018-09-26T06:57:23.777Z,6.70
2018-09-26T07:00:56.995Z,6.80
2018-09-26T07:04:30.211Z,6.90
2018-09-26T07:08:03.444Z,7.10
2018-09-26T07:11:36.667Z,7.20
2018-09-26T07:15:09.891Z,7.40
2018-09-26T07:18:43.098Z,7.60
2018-09-26T07:22:16.324Z,7.70
2018-09-26T07:25:49.561Z,7.90
2018-09-26T07:29:22.796Z,8.00
2018-09-26T07:32:56.060Z,8.20
2018-09-26T07:36:29.288Z,8.30
2018-09-26T07:40:02.515Z,8.50
2018-09-26T07:43:35.732Z,8.60
2018-09-26T07:47:08.952Z,8.70
2018-09-26T07:50:42.191Z,8.90
2018-09-26T07:54:15.483Z,9.00
2018-09-26T07:57:48.697Z,9.20
2018-09-26T08:01:21.921Z,9.30
2018-09-26T08:04:55.138Z,9.50
2018-09-26T08:08:28.408Z,9.60
2018-09-26T08:12:01.616Z,9.80
2018-09-26T08:15:34.859Z,10.00
2018-09-26T08:19:08.325Z,10.20
2018-09-26T08:22:41.568Z,10.40
2018-09-26T08:26:15.060Z,10.80
2018-09-26T08:29:48.348Z,11.20
2018-09-26T08:33:21.541Z,11.40
2018-09-26T08:36:54.782Z,11.50
2018-09-26T08:40:28.015Z,11.50
2018-09-26T08:44:01.310Z,11.70
2018-09-26T08:47:34.481Z,11.80
2018-09-26T08:51:07.752Z,11.90
2018-09-26T08:54:40.956Z,12.00
2018-09-26T08:58:14.204Z,12.10
2018-09-26T09:01:48.495Z,12.20
2018-09-26T09:05:21.716Z,12.30
2018-09-26T09:08:54.944Z,12.50
2018-09-26T09:12:28.152Z,12.70
2018-09-26T09:16:01.384Z,12.90
2018-09-26T09:19:34.620Z,13.10
2018-09-26T09:23:07.838Z,13.20
2018-09-26T09:26:41.062Z,13.30
2018-09-26T09:30:14.296Z,13.50
2018-09-26T09:33:47.508Z,13.60
2018-09-26T09:37:20.732Z,13.60
2018-09-26T09:40:53.988Z,13.70
2018-09-26T09:44:27.264Z,13.80
2018-09-26T09:48:00.457Z,13.90
2018-09-26T09:51:33.758Z,14.00
2018-09-26T09:55:06.972Z,14.10
2018-09-26T09:58:40.191Z,14.20
2018-09-26T10:02:13.451Z,14.30
2018-09-26T10:05:46.667Z,14.50
2018-09-26T10:09:19.904Z,14.70
2018-09-26T10:12:53.132Z,14.80
2018-09-26T10:16:26.359Z,15.00
2018-09-26T10:19:59.592Z,15.00
2018-09-26T10:23:32.823Z,15.10
2018-09-26T10:27:06.091Z,15.30
2018-09-26T10:30:39.324Z,15.40
2018-09-26T10:34:12.552Z,15.40
2018-09-26T10:37:45.808Z,15.50
2018-09-26T10:41:19.032Z,15.60
2018-09-26T10:44:52.262Z,15.60
2018-09-26T10:48:25.484Z,15.60
2018-09-26T10:51:58.718Z,15.70
2018-09-26T10:55:31.972Z,15.90
2018-09-26T10:59:05.193Z,16.00
2018-09-26T11:02:38.428Z,16.10
2018-09-26T11:06:11.658Z,16.20
2018-09-26T11:09:44.905Z,16.40
2018-09-26T11:13:18.141Z,16.50
2018-09-26T11:16:51.370Z,16.50
2018-09-26T11:20:24.648Z,16.60
2018-09-26T11:23:57.848Z,16.70
2018-09-26T11:27:31.099Z,16.80
2018-09-26T11:31:04.528Z,17.00
2018-09-26T11:34:38.469Z,17.10
2018-09-26T11:38:11.699Z,17.30
2018-09-26T11:41:44.935Z,17.40
2018-09-26T11:45:18.136Z,17.50
2018-09-26T11:48:51.377Z,17.50
2018-09-26T11:52:24.696Z,17.60
2018-09-26T11:55:57.866Z,17.60
2018-09-26T11:59:31.110Z,17.60
2018-09-26T12:03:04.385Z,17.60
2018-09-26T12:06:37.615Z,17.50
2018-09-26T12:10:10.896Z,17.60
2018-09-26T12:13:44.086Z,17.70
2018-09-26T12:17:17.320Z,17.90
2018-09-26T12:20:50.562Z,18.00
2018-09-26T12:24:23.847Z,18.20
2018-09-26T12:27:57.134Z,18.20
2018-09-26T12:31:30.259Z,18.20
2018-09-26T12:35:03.491Z,18.30
2018-09-26T12:38:36.701Z,18.20
2018-09-26T12:42:10.002Z,18.10
2018-09-26T12:45:43.198Z,18.10
2018-09-26T12:49:16.420Z,18.00
2018-09-26T12:52:49.690Z,17.90
2018-09-26T12:56:22.918Z,17.90
2018-09-26T12:59:56.145Z,18.00
2018-09-26T13:03:29.367Z,18.10
2018-09-26T13:07:02.588Z,18.30
2018-09-26T13:10:35.824Z,18.40
2018-09-26T13:14:09.111Z,18.40
2018-09-26T13:17:42.291Z,18.50
2018-09-26T13:21:15.533Z,18.60
2018-09-26T13:24:48.748Z,18.60
2018-09-26T13:28:22.012Z,18.70
2018-09-26T13:31:55.207Z,18.70
2018-09-26T13:35:28.449Z,18.80
2018-09-26T13:39:01.749Z,18.80
2018-09-26T13:42:34.932Z,18.80
2018-09-26T13:46:08.190Z,18.90
2018-09-26T13:49:41.413Z,19.00
2018-09-26T13:53:14.637Z,19.10
2018-09-26T13:56:47.865Z,19.20
2018-09-26T14:00:21.106Z,19.30
2018-09-26T14:03:54.328Z,19.30
2018-09-26T14:07:27.580Z,19.30
2018-09-26T14:11:00.814Z,19.30
2018-09-26T14:14:34.048Z,19.30
2018-09-26T14:18:07.622Z,19.20
2018-09-26T14:21:40.857Z,19.20
2018-09-26T14:25:14.085Z,19.20
2018-09-26T14:28:47.327Z,19.30
2018-09-26T14:32:20.570Z,19.30
2018-09-26T14:35:53.800Z,19.40
2018-09-26T14:39:27.104Z,19.50
2018-09-26T14:43:00.263Z,19.50
2018-09-26T14:46:33.501Z,19.50
2018-09-26T14:50:07.570Z,19.50
2018-09-26T14:53:40.825Z,19.40
2018-09-26T14:57:14.085Z,19.30
2018-09-26T15:00:47.318Z,19.30
2018-09-26T15:04:20.674Z,19.20
2018-09-26T15:07:53.801Z,19.10
2018-09-26T15:11:27.018Z,19.10
2018-09-26T15:15:00.255Z,19.00
2018-09-26T15:18:33.468Z,19.00
2018-09-26T15:22:06.747Z,18.90
2018-09-26T15:25:39.989Z,19.00
2018-09-26T15:29:13.226Z,19.00
2018-09-26T15:32:46.436Z,18.90
2018-09-26T15:36:19.735Z,18.90
2018-09-26T15:39:53.017Z,18.80
2018-09-26T15:43:27.148Z,18.70
2018-09-26T15:47:00.362Z,18.70
2018-09-26T15:50:33.627Z,18.70
2018-09-26T15:54:06.624Z,18.60
2018-09-26T15:57:39.817Z,18.60
2018-09-26T16:01:13.039Z,18.50
2018-09-26T16:04:46.282Z,18.40
2018-09-26T16:08:19.535Z,18.40
2018-09-26T16:11:52.764Z,18.30
2018-09-26T16:15:25.998Z,18.20
2018-09-26T16:18:59.220Z,18.20
2018-09-26T16:22:32.446Z,18.10
2018-09-26T16:26:05.709Z,18.00
2018-09-26T16:29:38.916Z,17.90
2018-09-26T16:33:12.156Z,17.80
2018-09-26T16:36:45.368Z,17.70
2018-09-26T16:40:18.687Z,17.60
2018-09-26T16:43:51.843Z,17.50
2018-09-26T16:47:25.077Z,17.40
2018-09-26T16:50:58.284Z,17.40
2018-09-26T16:54:31.691Z,17.30
2018-09-26T16:58:04.992Z,17.20
2018-09-26T17:01:38.229Z,17.20
2018-09-26T17:05:11.695Z,17.10
2018-09-26T17:08:44.924Z,17.00
2018-09-26T17:12:18.231Z,16.80
2018-09-26T17:15:51.401Z,16.70
2018-09-26T17:19:24.846Z,16.60
2018-09-26T17:22:58.127Z,16.50
2018-09-26T17:26:31.364Z,16.40
2018-09-26T17:30:04.656Z,16.30
2018-09-26T17:33:37.908Z,16.20
2018-09-26T17:37:11.144Z,16.10
2018-09-26T17:40:44.378Z,16.00
2018-09-26T17:44:17.615Z,15.90
2018-09-26T17:47:50.857Z,15.80
2018-09-26T17:51:24.089Z,15.80
2018-09-26T17:54:57.781Z,15.70
2018-09-26T17:58:31.073Z,15.70
2018-09-26T18:02:04.436Z,15.60
2018-09-26T18:05:37.738Z,15.50
2018-09-26T18:09:11.947Z,15.50
2018-09-26T18:12:45.201Z,15.40
2018-09-26T18:16:18.421Z,15.30
2018-09-26T18:19:51.673Z,15.10
2018-09-26T18:23:24.983Z,15.00
2018-09-26T18:26:58.152Z,14.80
2018-09-26T18:30:31.440Z,14.70
2018-09-26T18:34:04.670Z,14.60
2018-09-26T18:37:38.055Z,14.50
2018-09-26T18:41:11.324Z,14.40
2018-09-26T18:44:44.576Z,14.40
2018-09-26T18:48:17.796Z,14.30
2018-09-26T18:51:51.036Z,14.20
2018-09-26T18:55:24.252Z,14.10
2018-09-26T18:58:57.566Z,14.00
2018-09-26T19:02:30.718Z,14.00
2018-09-26T19:06:03.986Z,13.90
2018-09-26T19:09:37.232Z,13.80
2018-09-26T19:13:10.471Z,13.80
2018-09-26T19:16:43.708Z,13.70
2018-09-26T19:20:17.516Z,13.70
2018-09-26T19:23:50.939Z,13.60
2018-09-26T19:27:24.208Z,13.50
2018-09-26T19:30:58.000Z,13.40
2018-09-26T19:34:31.272Z,13.40
2018-09-26T19:38:04.667Z,13.30
2018-09-26T19:41:37.984Z,13.20
2018-09-26T19:45:11.475Z,13.10
2018-09-26T19:48:44.617Z,13.00
2018-09-26T19:52:18.101Z,13.00
2018-09-26T19:55:51.320Z,12.90
2018-09-26T19:59:24.559Z,12.90
2018-09-26T20:02:57.844Z,12.80
2018-09-26T20:06:31.101Z,12.80
2018-09-26T20:10:04.480Z,12.80
2018-09-26T20:13:37.721Z,12.70
2018-09-26T20:17:10.945Z,12.70
2018-09-26T20:20:44.173Z,12.70
2018-09-26T20:24:17.416Z,12.60
2018-09-26T20:27:50.676Z,12.60
2018-09-26T20:31:23.915Z,12.60
2018-09-26T20:34:57.177Z,12.50
2018-09-26T20:38:30.399Z,12.50
2018-09-26T20:42:03.613Z,12.50
2018-09-26T20:45:36.990Z,12.40
2018-09-26T20:49:10.181Z,12.40
2018-09-26T20:52:43.419Z,12.30
2018-09-26T20:56:16.707Z,12.20
2018-09-26T20:59:49.971Z,12.20
2018-09-26T21:03:23.175Z,12.10
2018-09-26T21:06:56.404Z,12.00
2018-09-26T21:10:29.624Z,11.90
2018-09-26T21:14:02.851Z,11.90
2018-09-26T21:17:36.128Z,11.80
2018-09-26T21:21:09.324Z,11.80
2018-09-26T21:24:42.565Z,11.80
2018-09-26T21:28:15.795Z,11.70
2018-09-26T21:31:49.020Z,11.70
2018-09-26T21:35:22.279Z,11.70
2018-09-26T21:38:55.696Z,11.70
2018-09-26T21:42:28.896Z,11.60
2018-09-26T21:46:02.112Z,11.60
2018-09-26T21:49:35.332Z,11.50
2018-09-26T21:53:08.589Z,11.50
2018-09-26T21:56:41.832Z,11.40
2018-09-26T22:00:15.100Z,11.30
2018-09-26T22:03:48.328Z,11.30
2018-09-26T22:07:21.568Z,11.30
2018-09-26T22:10:54.785Z,11.30
2018-09-26T22:14:28.010Z,11.30
2018-09-26T22:18:01.226Z,11.30
2018-09-26T22:21:34.446Z,11.30
2018-09-26T22:25:07.676Z,11.30
2018-09-26T22:28:40.880Z,11.20
2018-09-26T22:32:14.100Z,11.20
2018-09-26T22:35:47.316Z,11.20
2018-09-26T22:39:20.547Z,11.20
2018-09-26T22:42:53.800Z,11.20
2018-09-26T22:46:27.015Z,11.20
2018-09-26T22:50:00.260Z,11.10
2018-09-26T22:53:33.497Z,11.10
2018-09-26T22:57:06.727Z,11.10
2018-09-26T23:00:39.989Z,11.00
2018-09-26T23:04:13.213Z,11.00
2018-09-26T23:07:46.441Z,11.10
2018-09-26T23:11:19.669Z,11.00
2018-09-26T23:14:52.907Z,11.00
2018-09-26T23:18:26.125Z,10.90
2018-09-26T23:21:59.348Z,10.80
2018-09-26T23:25:32.565Z,10.80
2018-09-26T23:29:05.832Z,10.80
2018-09-26T23:32:39.052Z,10.80
2018-09-26T23:36:12.273Z,10.80
2018-09-26T23:39:45.515Z,10.70
2018-09-26T23:43:18.745Z,10.70
2018-09-26T23:46:51.975Z,10.70
2018-09-26T23:50:25.185Z,10.60
2018-09-26T23:53:58.868Z,10.60
2018-09-26T23:57:32.218Z,10.50
